sensor_id;sensor_type;location;lat;lon;timestamp;pressure;altitude;pressure_sealevel;temperature;humidity
43934;BME280;59081;42.706;23.306;2022-07-29T00:00:09;95352.28;;;19.85;73.94
43934;BME280;59081;42.706;23.306;2022-07-29T00:02:34;95416.38;;;20.40;72.56
43934;BME280;59081;42.706;23.306;2022-07-29T00:05:00;95303.38;;;19.48;72.31
43934;BME280;59081;42.706;23.306;2022-07-29T00:07:26;95303.09;;;19.67;72.50
43934;BME280;59081;42.706;23.306;2022-07-29T00:09:51;95362.19;;;20.11;71.48
43934;BME280;59081;42.706;23.306;2022-07-29T00:12:17;95354.69;;;20.29;70.28
43934;BME280;59081;42.706;23.306;2022-07-29T00:14:43;95434.69;;;21.09;69.67
43934;BME280;59081;42.706;23.306;2022-07-29T00:17:08;95334.91;;;20.69;68.25
43934;BME280;59081;42.706;23.306;2022-07-29T00:19:34;95328.16;;;20.87;67.40
43934;BME280;59081;42.706;23.306;2022-07-29T00:22:00;95435.00;;;21.71;66.91
43934;BME280;59081;42.706;23.306;2022-07-29T00:24:25;95324.97;;;21.16;66.31
43934;BME280;59081;42.706;23.306;2022-07-29T00:26:51;95376.09;;;21.60;65.74
43934;BME280;59081;42.706;23.306;2022-07-29T00:29:17;95302.56;;;21.16;65.53
43934;BME280;59081;42.706;23.306;2022-07-29T00:31:42;95320.72;;;21.32;65.98
43934;BME280;59081;42.706;23.306;2022-07-29T00:34:08;95273.94;;;20.90;66.33
43934;BME280;59081;42.706;23.306;2022-07-29T00:36:53;95365.91;;;21.57;66.05
43934;BME280;59081;42.706;23.306;2022-07-29T00:39:19;95326.31;;;21.32;65.98
43934;BME280;59081;42.706;23.306;2022-07-29T00:41:44;95311.19;;;21.07;66.47
43934;BME280;59081;42.706;23.306;2022-07-29T00:44:10;95399.47;;;20.97;68.90
43934;BME280;59081;42.706;23.306;2022-07-29T00:46:35;95278.88;;;20.21;68.77
43934;BME280;59081;42.706;23.306;2022-07-29T00:49:00;95328.22;;;20.56;68.46
43934;BME280;59081;42.706;23.306;2022-07-29T00:51:27;95341.72;;;20.57;68.63
43934;BME280;59081;42.706;23.306;2022-07-29T00:53:53;95337.53;;;20.41;68.80
43934;BME280;59081;42.706;23.306;2022-07-29T00:56:18;95391.13;;;20.66;69.25
43934;BME280;59081;42.706;23.306;2022-07-29T00:58:46;95384.47;;;20.58;69.60
43934;BME280;59081;42.706;23.306;2022-07-29T01:01:13;95413.34;;;20.75;69.17
43934;BME280;59081;42.706;23.306;2022-07-29T01:03:38;95420.81;;;20.89;69.03
43934;BME280;59081;42.706;23.306;2022-07-29T01:06:04;95391.97;;;20.77;68.87
43934;BME280;59081;42.706;23.306;2022-07-29T01:08:31;95323.00;;;20.37;68.41
43934;BME280;59081;42.706;23.306;2022-07-29T01:10:59;95435.47;;;21.15;68.17
43934;BME280;59081;42.706;23.306;2022-07-29T01:13:25;95346.81;;;20.59;68.29
43934;BME280;59081;42.706;23.306;2022-07-29T01:15:57;95358.53;;;20.63;68.15
43934;BME280;59081;42.706;23.306;2022-07-29T01:18:32;95314.47;;;20.52;67.38
43934;BME280;59081;42.706;23.306;2022-07-29T01:23:59;95409.13;;;21.39;67.10
43934;BME280;59081;42.706;23.306;2022-07-29T01:32:02;95408.09;;;21.36;67.17
43934;BME280;59081;42.706;23.306;2022-07-29T01:34:46;95275.59;;;20.60;67.00
43934;BME280;59081;42.706;23.306;2022-07-29T01:37:27;95393.63;;;21.49;66.56
43934;BME280;59081;42.706;23.306;2022-07-29T01:39:55;95286.88;;;20.76;66.70
43934;BME280;59081;42.706;23.306;2022-07-29T01:42:35;95284.50;;;20.64;67.08
43934;BME280;59081;42.706;23.306;2022-07-29T01:45:07;95346.19;;;20.43;68.75
43934;BME280;59081;42.706;23.306;2022-07-29T01:47:40;95244.84;;;19.60;70.01
43934;BME280;59081;42.706;23.306;2022-07-29T01:50:10;95350.84;;;20.21;70.51
43934;BME280;59081;42.706;23.306;2022-07-29T01:52:43;95309.31;;;19.82;71.46
43934;BME280;59081;42.706;23.306;2022-07-29T01:55:13;95315.25;;;19.90;71.39
43934;BME280;59081;42.706;23.306;2022-07-29T01:57:42;95340.97;;;20.25;71.30
43934;BME280;59081;42.706;23.306;2022-07-29T02:00:08;95312.16;;;20.19;70.86
43934;BME280;59081;42.706;23.306;2022-07-29T02:02:35;95296.66;;;20.18;70.21
43934;BME280;59081;42.706;23.306;2022-07-29T02:05:05;95318.47;;;20.45;69.74
43934;BME280;59081;42.706;23.306;2022-07-29T02:07:33;95280.31;;;20.11;70.24
43934;BME280;59081;42.706;23.306;2022-07-29T02:10:02;95264.94;;;19.95;70.07
43934;BME280;59081;42.706;23.306;2022-07-29T02:12:29;95310.38;;;20.16;70.93
43934;BME280;59081;42.706;23.306;2022-07-29T02:14:59;95268.06;;;20.03;70.81
43934;BME280;59081;42.706;23.306;2022-07-29T02:17:50;95340.97;;;20.62;69.72
43934;BME280;59081;42.706;23.306;2022-07-29T02:20:16;95285.13;;;20.05;70.31
43934;BME280;59081;42.706;23.306;2022-07-29T02:22:43;95302.78;;;20.22;70.24
43934;BME280;59081;42.706;23.306;2022-07-29T02:25:10;95280.97;;;20.32;69.80
43934;BME280;59081;42.706;23.306;2022-07-29T02:27:37;95328.09;;;20.76;68.94
43934;BME280;59081;42.706;23.306;2022-07-29T02:30:05;95366.97;;;21.16;68.32
43934;BME280;59081;42.706;23.306;2022-07-29T02:32:31;95350.66;;;21.15;67.73
43934;BME280;59081;42.706;23.306;2022-07-29T02:35:00;95297.66;;;20.95;67.22
43934;BME280;59081;42.706;23.306;2022-07-29T02:37:27;95367.41;;;21.52;67.50
43934;BME280;59081;42.706;23.306;2022-07-29T02:39:55;95287.94;;;20.90;67.27
43934;BME280;59081;42.706;23.306;2022-07-29T02:42:22;95369.44;;;21.46;67.67
43934;BME280;59081;42.706;23.306;2022-07-29T02:44:49;95301.22;;;20.95;67.75
43934;BME280;59081;42.706;23.306;2022-07-29T02:47:31;95307.09;;;21.03;68.20
43934;BME280;59081;42.706;23.306;2022-07-29T02:50:07;95367.13;;;21.50;67.70
43934;BME280;59081;42.706;23.306;2022-07-29T02:52:41;95272.66;;;20.85;67.63
43934;BME280;59081;42.706;23.306;2022-07-29T02:55:12;95371.00;;;21.58;67.99
43934;BME280;59081;42.706;23.306;2022-07-29T02:57:47;95326.09;;;21.36;68.21
43934;BME280;59081;42.706;23.306;2022-07-29T03:00:15;95263.44;;;20.79;68.67
43934;BME280;59081;42.706;23.306;2022-07-29T03:02:46;95252.97;;;20.69;69.16
43934;BME280;59081;42.706;23.306;2022-07-29T03:05:19;95301.06;;;20.67;70.70
43934;BME280;59081;42.706;23.306;2022-07-29T03:07:48;95304.94;;;20.81;70.58
43934;BME280;59081;42.706;23.306;2022-07-29T03:10:14;95270.78;;;20.66;70.13
43934;BME280;59081;42.706;23.306;2022-07-29T03:12:41;95282.69;;;20.61;70.42
43934;BME280;59081;42.706;23.306;2022-07-29T03:15:08;95262.78;;;20.42;70.58
43934;BME280;59081;42.706;23.306;2022-07-29T03:17:34;95372.00;;;21.01;70.75
43934;BME280;59081;42.706;23.306;2022-07-29T03:20:01;95315.59;;;20.71;70.67
43934;BME280;59081;42.706;23.306;2022-07-29T03:22:26;95370.03;;;21.18;70.49
43934;BME280;59081;42.706;23.306;2022-07-29T03:24:52;95223.47;;;20.25;69.83
43934;BME280;59081;42.706;23.306;2022-07-29T03:27:18;95256.84;;;20.34;70.35
43934;BME280;59081;42.706;23.306;2022-07-29T03:29:43;95369.19;;;21.01;70.69
43934;BME280;59081;42.706;23.306;2022-07-29T03:32:09;95237.88;;;20.12;70.54
43934;BME280;59081;42.706;23.306;2022-07-29T03:34:36;95292.88;;;20.21;71.74
43934;BME280;59081;42.706;23.306;2022-07-29T03:37:03;95279.47;;;19.99;72.37
43934;BME280;59081;42.706;23.306;2022-07-29T03:39:31;95244.25;;;19.50;73.10
43934;BME280;59081;42.706;23.306;2022-07-29T03:41:59;95257.72;;;19.05;76.02
43934;BME280;59081;42.706;23.306;2022-07-29T03:44:26;95275.63;;;18.73;77.98
43934;BME280;59081;42.706;23.306;2022-07-29T03:46:55;95286.38;;;18.45;80.47
43934;BME280;59081;42.706;23.306;2022-07-29T03:49:24;95270.22;;;18.49;80.22
43934;BME280;59081;42.706;23.306;2022-07-29T03:51:51;95296.56;;;19.03;79.00
43934;BME280;59081;42.706;23.306;2022-07-29T03:54:16;95251.91;;;19.03;76.86
43934;BME280;59081;42.706;23.306;2022-07-29T03:56:43;95326.97;;;19.68;76.12
43934;BME280;59081;42.706;23.306;2022-07-29T03:59:16;95389.94;;;20.15;75.82
43934;BME280;59081;42.706;23.306;2022-07-29T04:01:43;95320.09;;;19.95;74.65
43934;BME280;59081;42.706;23.306;2022-07-29T04:04:08;95386.41;;;20.46;73.98
43934;BME280;59081;42.706;23.306;2022-07-29T04:06:42;95400.00;;;20.64;73.22
43934;BME280;59081;42.706;23.306;2022-07-29T04:09:09;95296.59;;;20.12;72.69
43934;BME280;59081;42.706;23.306;2022-07-29T04:11:36;95283.13;;;20.11;72.26
43934;BME280;59081;42.706;23.306;2022-07-29T04:14:02;95284.00;;;20.28;72.03
43934;BME280;59081;42.706;23.306;2022-07-29T04:16:27;95279.06;;;20.12;71.82
43934;BME280;59081;42.706;23.306;2022-07-29T04:18:53;95325.38;;;20.19;73.02
43934;BME280;59081;42.706;23.306;2022-07-29T04:21:18;95238.00;;;19.61;73.72
43934;BME280;59081;42.706;23.306;2022-07-29T04:23:43;95252.91;;;19.52;73.67
43934;BME280;59081;42.706;23.306;2022-07-29T04:26:10;95266.13;;;19.52;72.86
43934;BME280;59081;42.706;23.306;2022-07-29T04:28:36;95249.69;;;19.13;73.61
43934;BME280;59081;42.706;23.306;2022-07-29T04:31:04;95245.47;;;19.23;73.52
43934;BME280;59081;42.706;23.306;2022-07-29T04:33:30;95243.75;;;19.05;73.14
43934;BME280;59081;42.706;23.306;2022-07-29T04:35:55;95305.25;;;19.31;72.87
43934;BME280;59081;42.706;23.306;2022-07-29T04:38:21;95374.13;;;19.60;74.29
43934;BME280;59081;42.706;23.306;2022-07-29T04:40:47;95240.13;;;18.38;75.53
43934;BME280;59081;42.706;23.306;2022-07-29T04:43:13;95311.53;;;19.06;74.73
43934;BME280;59081;42.706;23.306;2022-07-29T04:45:38;95346.44;;;19.16;74.90
43934;BME280;59081;42.706;23.306;2022-07-29T04:48:04;95377.97;;;19.42;75.12
43934;BME280;59081;42.706;23.306;2022-07-29T04:50:30;95314.78;;;18.99;75.52
43934;BME280;59081;42.706;23.306;2022-07-29T04:52:55;95387.69;;;19.47;74.82
43934;BME280;59081;42.706;23.306;2022-07-29T04:55:20;95292.50;;;18.84;74.60
43934;BME280;59081;42.706;23.306;2022-07-29T04:57:46;95295.16;;;18.93;74.18
43934;BME280;59081;42.706;23.306;2022-07-29T05:00:12;95347.25;;;19.42;74.16
43934;BME280;59081;42.706;23.306;2022-07-29T05:02:38;95311.88;;;19.34;73.28
43934;BME280;59081;42.706;23.306;2022-07-29T05:05:03;95295.25;;;19.25;73.29
43934;BME280;59081;42.706;23.306;2022-07-29T05:07:29;95266.28;;;19.22;72.17
43934;BME280;59081;42.706;23.306;2022-07-29T05:09:54;95329.72;;;19.42;72.38
43934;BME280;59081;42.706;23.306;2022-07-29T05:12:22;95413.41;;;19.97;72.35
43934;BME280;59081;42.706;23.306;2022-07-29T05:14:48;95331.09;;;19.72;71.50
43934;BME280;59081;42.706;23.306;2022-07-29T05:17:13;95339.53;;;20.09;72.04
43934;BME280;59081;42.706;23.306;2022-07-29T05:19:39;95308.38;;;20.22;68.86
43934;BME280;59081;42.706;23.306;2022-07-29T05:22:04;95406.19;;;21.11;66.73
43934;BME280;59081;42.706;23.306;2022-07-29T05:24:30;95339.09;;;20.42;67.41
43934;BME280;59081;42.706;23.306;2022-07-29T05:26:56;95416.25;;;20.97;67.17
43934;BME280;59081;42.706;23.306;2022-07-29T05:29:21;95350.13;;;20.63;67.53
43934;BME280;59081;42.706;23.306;2022-07-29T05:31:47;95328.50;;;20.63;66.85
43934;BME280;59081;42.706;23.306;2022-07-29T05:34:12;95357.72;;;20.99;66.42
43934;BME280;59081;42.706;23.306;2022-07-29T05:36:38;95300.84;;;20.71;66.36
43934;BME280;59081;42.706;23.306;2022-07-29T05:39:03;95284.91;;;20.45;65.91
43934;BME280;59081;42.706;23.306;2022-07-29T05:41:32;95344.25;;;21.03;65.75
43934;BME280;59081;42.706;23.306;2022-07-29T05:43:57;95324.34;;;20.90;67.04
43934;BME280;59081;42.706;23.306;2022-07-29T05:46:23;95355.94;;;21.44;65.12
43934;BME280;59081;42.706;23.306;2022-07-29T05:48:49;95369.25;;;21.83;63.82
43934;BME280;59081;42.706;23.306;2022-07-29T05:51:14;95310.91;;;21.81;63.21
43934;BME280;59081;42.706;23.306;2022-07-29T05:53:40;95377.25;;;22.18;61.99
43934;BME280;59081;42.706;23.306;2022-07-29T05:56:06;95398.19;;;22.50;63.09
43934;BME280;59081;42.706;23.306;2022-07-29T05:58:32;95410.44;;;22.92;62.48
43934;BME280;59081;42.706;23.306;2022-07-29T06:00:58;95373.16;;;22.91;61.39
43934;BME280;59081;42.706;23.306;2022-07-29T06:03:26;95314.69;;;22.73;59.50
43934;BME280;59081;42.706;23.306;2022-07-29T06:05:52;95320.56;;;22.70;58.87
43934;BME280;59081;42.706;23.306;2022-07-29T06:08:18;95375.34;;;23.26;59.72
43934;BME280;59081;42.706;23.306;2022-07-29T06:10:44;95311.91;;;22.84;56.98
43934;BME280;59081;42.706;23.306;2022-07-29T06:13:11;95345.06;;;22.97;57.83
43934;BME280;59081;42.706;23.306;2022-07-29T06:15:36;95360.13;;;22.72;58.12
43934;BME280;59081;42.706;23.306;2022-07-29T06:18:02;95309.16;;;22.23;59.73
43934;BME280;59081;42.706;23.306;2022-07-29T06:20:29;95399.22;;;22.81;59.32
43934;BME280;59081;42.706;23.306;2022-07-29T06:22:56;95372.69;;;22.48;59.46
43934;BME280;59081;42.706;23.306;2022-07-29T06:25:21;95436.97;;;22.69;59.72
43934;BME280;59081;42.706;23.306;2022-07-29T06:27:47;95360.41;;;22.40;59.42
43934;BME280;59081;42.706;23.306;2022-07-29T06:30:12;95290.00;;;21.99;59.47
43934;BME280;59081;42.706;23.306;2022-07-29T06:32:38;95346.59;;;22.76;58.73
43934;BME280;59081;42.706;23.306;2022-07-29T06:35:04;95342.25;;;22.97;58.08
43934;BME280;59081;42.706;23.306;2022-07-29T06:37:29;95323.31;;;23.03;56.77
43934;BME280;59081;42.706;23.306;2022-07-29T06:39:55;95363.03;;;23.52;56.98
43934;BME280;59081;42.706;23.306;2022-07-29T06:42:43;95323.13;;;23.48;56.52
43934;BME280;59081;42.706;23.306;2022-07-29T06:45:11;95327.06;;;23.80;55.86
43934;BME280;59081;42.706;23.306;2022-07-29T06:47:37;95331.31;;;23.92;55.16
43934;BME280;59081;42.706;23.306;2022-07-29T06:50:03;95339.56;;;23.85;55.24
43934;BME280;59081;42.706;23.306;2022-07-29T06:52:29;95310.97;;;23.75;54.91
43934;BME280;59081;42.706;23.306;2022-07-29T06:54:54;95322.41;;;23.88;54.17
43934;BME280;59081;42.706;23.306;2022-07-29T06:57:21;95353.41;;;24.24;53.40
43934;BME280;59081;42.706;23.306;2022-07-29T06:59:46;95280.22;;;23.88;53.49
43934;BME280;59081;42.706;23.306;2022-07-29T07:02:12;95332.50;;;24.08;52.75
43934;BME280;59081;42.706;23.306;2022-07-29T07:04:37;95368.41;;;24.38;52.37
43934;BME280;59081;42.706;23.306;2022-07-29T07:07:03;95358.53;;;24.20;53.12
43934;BME280;59081;42.706;23.306;2022-07-29T07:09:28;95418.41;;;24.86;52.98
43934;BME280;59081;42.706;23.306;2022-07-29T07:11:54;95396.63;;;25.16;51.30
43934;BME280;59081;42.706;23.306;2022-07-29T07:14:19;95348.94;;;24.94;50.85
43934;BME280;59081;42.706;23.306;2022-07-29T07:16:44;95306.31;;;24.54;50.13
43934;BME280;59081;42.706;23.306;2022-07-29T07:19:10;95336.34;;;24.71;50.28
43934;BME280;59081;42.706;23.306;2022-07-29T07:21:35;95332.06;;;24.88;50.08
43934;BME280;59081;42.706;23.306;2022-07-29T07:24:01;95283.09;;;24.43;49.58
43934;BME280;59081;42.706;23.306;2022-07-29T07:26:27;95313.69;;;24.82;49.07
43934;BME280;59081;42.706;23.306;2022-07-29T07:28:52;95316.59;;;24.46;49.31
43934;BME280;59081;42.706;23.306;2022-07-29T07:31:18;95294.34;;;24.43;49.75
43934;BME280;59081;42.706;23.306;2022-07-29T07:33:43;95347.19;;;24.61;49.89
43934;BME280;59081;42.706;23.306;2022-07-29T07:36:09;95310.88;;;24.57;49.38
43934;BME280;59081;42.706;23.306;2022-07-29T07:38:34;95399.19;;;25.39;49.06
43934;BME280;59081;42.706;23.306;2022-07-29T07:41:00;95381.00;;;25.40;48.66
43934;BME280;59081;42.706;23.306;2022-07-29T07:43:26;95331.50;;;25.20;48.46
43934;BME280;59081;42.706;23.306;2022-07-29T07:45:51;95323.84;;;25.39;47.55
43934;BME280;59081;42.706;23.306;2022-07-29T07:48:17;95297.47;;;25.37;46.81
43934;BME280;59081;42.706;23.306;2022-07-29T07:50:43;95291.34;;;25.32;47.03
43934;BME280;59081;42.706;23.306;2022-07-29T07:53:08;95414.63;;;25.99;46.19
43934;BME280;59081;42.706;23.306;2022-07-29T07:55:39;95316.81;;;25.27;47.17
43934;BME280;59081;42.706;23.306;2022-07-29T07:58:05;95385.50;;;25.91;47.30
43934;BME280;59081;42.706;23.306;2022-07-29T08:00:31;95345.91;;;25.97;46.77
43934;BME280;59081;42.706;23.306;2022-07-29T08:02:57;95392.56;;;26.17;46.10
43934;BME280;59081;42.706;23.306;2022-07-29T08:05:23;95303.81;;;25.61;46.95
43934;BME280;59081;42.706;23.306;2022-07-29T08:07:49;95282.38;;;25.53;46.49
43934;BME280;59081;42.706;23.306;2022-07-29T08:10:18;95321.63;;;25.51;46.67
43934;BME280;59081;42.706;23.306;2022-07-29T08:13:05;95301.97;;;25.64;46.29
43934;BME280;59081;42.706;23.306;2022-07-29T08:15:31;95284.28;;;25.63;45.60
43934;BME280;59081;42.706;23.306;2022-07-29T08:17:56;95332.31;;;26.14;44.83
43934;BME280;59081;42.706;23.306;2022-07-29T08:20:22;95343.25;;;26.18;45.38
43934;BME280;59081;42.706;23.306;2022-07-29T08:22:48;95396.84;;;26.42;44.71
43934;BME280;59081;42.706;23.306;2022-07-29T08:25:13;95314.44;;;26.06;44.58
43934;BME280;59081;42.706;23.306;2022-07-29T08:27:38;95253.66;;;25.73;43.62
43934;BME280;59081;42.706;23.306;2022-07-29T08:30:04;95315.13;;;26.31;44.11
43934;BME280;59081;42.706;23.306;2022-07-29T08:32:30;95285.38;;;25.79;43.93
43934;BME280;59081;42.706;23.306;2022-07-29T08:34:56;95329.06;;;26.42;44.00
43934;BME280;59081;42.706;23.306;2022-07-29T08:37:22;95259.41;;;26.31;42.78
43934;BME280;59081;42.706;23.306;2022-07-29T08:39:47;95306.66;;;26.31;43.26
43934;BME280;59081;42.706;23.306;2022-07-29T08:42:13;95329.38;;;26.84;42.47
43934;BME280;59081;42.706;23.306;2022-07-29T08:44:39;95360.28;;;27.21;41.98
43934;BME280;59081;42.706;23.306;2022-07-29T08:47:04;95288.16;;;26.88;41.37
43934;BME280;59081;42.706;23.306;2022-07-29T08:49:33;95344.63;;;27.20;40.61
43934;BME280;59081;42.706;23.306;2022-07-29T08:52:00;95382.25;;;27.55;40.79
43934;BME280;59081;42.706;23.306;2022-07-29T08:54:26;95347.09;;;27.37;40.33
43934;BME280;59081;42.706;23.306;2022-07-29T08:56:53;95293.94;;;27.22;40.06
43934;BME280;59081;42.706;23.306;2022-07-29T08:59:20;95285.13;;;27.26;39.34
43934;BME280;59081;42.706;23.306;2022-07-29T09:01:48;95310.13;;;27.61;39.64
43934;BME280;59081;42.706;23.306;2022-07-29T09:04:17;95321.38;;;27.88;39.38
43934;BME280;59081;42.706;23.306;2022-07-29T09:06:47;95266.22;;;27.81;38.71
43934;BME280;59081;42.706;23.306;2022-07-29T09:09:13;95259.91;;;27.75;38.40
43934;BME280;59081;42.706;23.306;2022-07-29T09:11:40;95290.69;;;28.13;37.34
43934;BME280;59081;42.706;23.306;2022-07-29T09:14:06;95347.88;;;28.45;38.22
43934;BME280;59081;42.706;23.306;2022-07-29T09:16:45;95301.41;;;28.27;37.65
43934;BME280;59081;42.706;23.306;2022-07-29T09:19:27;95260.84;;;28.12;37.34
43934;BME280;59081;42.706;23.306;2022-07-29T09:21:54;95366.31;;;29.01;37.30
43934;BME280;59081;42.706;23.306;2022-07-29T09:24:24;95359.22;;;28.87;36.66
43934;BME280;59081;42.706;23.306;2022-07-29T09:26:50;95282.69;;;28.45;36.06
43934;BME280;59081;42.706;23.306;2022-07-29T09:29:18;95244.50;;;28.38;36.64
43934;BME280;59081;42.706;23.306;2022-07-29T09:31:46;95298.59;;;28.90;34.94
43934;BME280;59081;42.706;23.306;2022-07-29T09:34:14;95356.03;;;29.39;35.41
43934;BME280;59081;42.706;23.306;2022-07-29T09:36:44;95362.56;;;29.55;34.84
43934;BME280;59081;42.706;23.306;2022-07-29T09:39:12;95351.44;;;29.65;34.50
43934;BME280;59081;42.706;23.306;2022-07-29T09:41:48;95294.75;;;29.44;34.36
43934;BME280;59081;42.706;23.306;2022-07-29T09:44:14;95283.53;;;29.38;34.79
43934;BME280;59081;42.706;23.306;2022-07-29T09:46:52;95308.34;;;29.82;34.14
43934;BME280;59081;42.706;23.306;2022-07-29T09:49:17;95304.97;;;29.91;34.06
43934;BME280;59081;42.706;23.306;2022-07-29T09:51:43;95333.31;;;30.34;33.99
43934;BME280;59081;42.706;23.306;2022-07-29T09:56:48;95283.31;;;29.65;33.91
43934;BME280;59081;42.706;23.306;2022-07-29T09:59:14;95347.66;;;30.13;34.59
43934;BME280;59081;42.706;23.306;2022-07-29T10:01:40;95291.00;;;30.00;33.61
43934;BME280;59081;42.706;23.306;2022-07-29T10:04:05;95270.41;;;30.23;33.83
43934;BME280;59081;42.706;23.306;2022-07-29T10:06:31;95343.44;;;30.89;32.34
43934;BME280;59081;42.706;23.306;2022-07-29T10:09:10;95318.78;;;30.68;32.46
43934;BME280;59081;42.706;23.306;2022-07-29T10:11:36;95311.78;;;30.62;33.44
43934;BME280;59081;42.706;23.306;2022-07-29T10:14:03;95245.25;;;30.27;32.02
43934;BME280;59081;42.706;23.306;2022-07-29T10:16:30;95304.75;;;30.86;32.12
43934;BME280;59081;42.706;23.306;2022-07-29T10:19:00;95264.59;;;30.66;31.59
43934;BME280;59081;42.706;23.306;2022-07-29T10:21:26;95232.94;;;30.62;32.00
43934;BME280;59081;42.706;23.306;2022-07-29T10:23:52;95247.34;;;30.72;30.92
43934;BME280;59081;42.706;23.306;2022-07-29T10:26:19;95248.81;;;30.88;31.42
43934;BME280;59081;42.706;23.306;2022-07-29T10:28:45;95232.38;;;30.64;31.93
43934;BME280;59081;42.706;23.306;2022-07-29T10:31:26;95209.44;;;30.39;32.91
43934;BME280;59081;42.706;23.306;2022-07-29T10:34:55;95257.16;;;30.94;32.45
43934;BME280;59081;42.706;23.306;2022-07-29T10:40:15;95249.38;;;31.02;30.60
43934;BME280;59081;42.706;23.306;2022-07-29T10:43:03;95293.94;;;31.07;31.16
43934;BME280;59081;42.706;23.306;2022-07-29T10:45:31;95189.28;;;30.90;31.30
43934;BME280;59081;42.706;23.306;2022-07-29T10:48:04;95189.63;;;31.17;29.70
43934;BME280;59081;42.706;23.306;2022-07-29T10:53:19;95216.19;;;31.12;29.83
43934;BME280;59081;42.706;23.306;2022-07-29T10:55:46;95176.03;;;30.93;30.54
43934;BME280;59081;42.706;23.306;2022-07-29T10:58:21;95214.94;;;31.45;29.64
43934;BME280;59081;42.706;23.306;2022-07-29T11:00:50;95250.78;;;31.48;30.70
43934;BME280;59081;42.706;23.306;2022-07-29T11:03:47;95272.59;;;32.01;29.42
43934;BME280;59081;42.706;23.306;2022-07-29T11:06:13;95203.28;;;31.59;29.41
43934;BME280;59081;42.706;23.306;2022-07-29T11:08:39;95181.44;;;31.69;28.51
43934;BME280;59081;42.706;23.306;2022-07-29T11:13:51;95207.16;;;31.86;29.45
43934;BME280;59081;42.706;23.306;2022-07-29T11:16:18;95199.81;;;31.75;29.67
43934;BME280;59081;42.706;23.306;2022-07-29T11:21:42;95186.91;;;32.32;29.49
43934;BME280;59081;42.706;23.306;2022-07-29T11:24:12;95184.63;;;32.30;28.49
43934;BME280;59081;42.706;23.306;2022-07-29T11:26:38;95243.25;;;32.41;28.84
43934;BME280;59081;42.706;23.306;2022-07-29T11:29:20;95193.47;;;32.42;28.32
43934;BME280;59081;42.706;23.306;2022-07-29T11:31:50;95179.75;;;31.91;29.55
43934;BME280;59081;42.706;23.306;2022-07-29T11:34:30;95197.66;;;32.41;28.08
43934;BME280;59081;42.706;23.306;2022-07-29T11:39:38;95240.75;;;32.70;28.61
43934;BME280;59081;42.706;23.306;2022-07-29T11:45:11;95237.69;;;32.93;29.13
43934;BME280;59081;42.706;23.306;2022-07-29T11:47:47;95172.59;;;32.81;28.63
43934;BME280;59081;42.706;23.306;2022-07-29T11:50:16;95181.06;;;33.41;28.02
43934;BME280;59081;42.706;23.306;2022-07-29T11:52:44;95145.78;;;33.46;27.60
43934;BME280;59081;42.706;23.306;2022-07-29T11:55:18;95215.38;;;33.95;26.70
43934;BME280;59081;42.706;23.306;2022-07-29T11:57:50;95217.88;;;34.35;27.82
43934;BME280;59081;42.706;23.306;2022-07-29T12:00:27;95188.13;;;33.84;26.95
43934;BME280;59081;42.706;23.306;2022-07-29T12:02:53;95180.66;;;33.98;27.08
43934;BME280;59081;42.706;23.306;2022-07-29T12:05:19;95200.16;;;34.09;26.62
43934;BME280;59081;42.706;23.306;2022-07-29T12:07:46;95172.94;;;33.64;26.16
43934;BME280;59081;42.706;23.306;2022-07-29T12:10:12;95165.84;;;33.82;25.95
43934;BME280;59081;42.706;23.306;2022-07-29T12:12:38;95162.78;;;33.71;26.62
43934;BME280;59081;42.706;23.306;2022-07-29T12:15:24;95216.44;;;34.53;25.93
43934;BME280;59081;42.706;23.306;2022-07-29T12:17:51;95169.97;;;33.89;26.29
43934;BME280;59081;42.706;23.306;2022-07-29T12:20:29;95147.31;;;33.74;25.94
43934;BME280;59081;42.706;23.306;2022-07-29T12:22:55;95220.63;;;34.79;25.35
43934;BME280;59081;42.706;23.306;2022-07-29T12:25:23;95139.66;;;34.49;25.29
43934;BME280;59081;42.706;23.306;2022-07-29T12:28:00;95170.28;;;34.76;24.84
43934;BME280;59081;42.706;23.306;2022-07-29T12:30:38;95205.03;;;34.72;25.10
43934;BME280;59081;42.706;23.306;2022-07-29T12:33:13;95202.31;;;34.65;25.21
43934;BME280;59081;42.706;23.306;2022-07-29T12:35:39;95172.22;;;34.27;24.94
43934;BME280;59081;42.706;23.306;2022-07-29T12:38:05;95112.59;;;33.50;25.28
43934;BME280;59081;42.706;23.306;2022-07-29T12:40:31;95090.88;;;33.92;25.36
43934;BME280;59081;42.706;23.306;2022-07-29T12:43:12;95144.34;;;34.54;25.38
43934;BME280;59081;42.706;23.306;2022-07-29T12:45:39;95212.44;;;34.02;26.65
43934;BME280;59081;42.706;23.306;2022-07-29T12:48:05;95138.41;;;34.33;25.29
43934;BME280;59081;42.706;23.306;2022-07-29T12:50:34;95120.66;;;33.98;25.18
43934;BME280;59081;42.706;23.306;2022-07-29T12:53:11;95134.16;;;34.25;24.48
43934;BME280;59081;42.706;23.306;2022-07-29T12:55:45;95180.97;;;34.75;24.45
43934;BME280;59081;42.706;23.306;2022-07-29T12:58:25;95103.34;;;34.33;23.93
43934;BME280;59081;42.706;23.306;2022-07-29T13:01:09;95104.06;;;34.23;24.86
43934;BME280;59081;42.706;23.306;2022-07-29T13:03:51;95095.19;;;34.29;25.11
43934;BME280;59081;42.706;23.306;2022-07-29T13:06:44;95166.56;;;34.46;25.08
43934;BME280;59081;42.706;23.306;2022-07-29T13:09:18;95067.97;;;33.28;25.69
43934;BME280;59081;42.706;23.306;2022-07-29T13:11:46;95125.25;;;34.11;25.26
43934;BME280;59081;42.706;23.306;2022-07-29T13:14:14;95100.47;;;34.33;24.75
43934;BME280;59081;42.706;23.306;2022-07-29T13:19:37;95159.88;;;34.61;25.00
43934;BME280;59081;42.706;23.306;2022-07-29T13:22:04;95062.47;;;33.94;24.99
43934;BME280;59081;42.706;23.306;2022-07-29T13:24:30;95054.16;;;33.61;25.26
43934;BME280;59081;42.706;23.306;2022-07-29T13:26:55;95082.16;;;34.55;24.39